Time;durP1;ratioP1;P1;durP2;ratioP2;P2;SDS_P1;SDS_P2;PMS_P1;PMS_P2;Temp;Humidity;BMP_temperature;BMP_pressure;BME280_temperature;BME280_humidity;BME280_pressure;Samples;Min_cycle;Max_cycle;Signal;HPM_P1;HPM_P2
2022/04/08 00:00:13;;;;;;;;;0.33;0.33;;;;;;;;5009815;28;51187;-60
2022/04/08 00:02:38;;;;;;;;;2.00;1.33;;;;;;;;5003629;28;52901;-60
2022/04/08 00:05:04;;;;;;;;;1.00;0.00;;;;;;;;5004275;28;51140;-60
2022/04/08 00:07:30;;;;;;;;;0.00;0.00;;;;;;;;5007832;28;51249;-60
2022/04/08 00:09:55;;;;;;;;;0.00;0.00;;;;;;;;5016664;28;51776;-60
2022/04/08 00:12:20;;;;;;;;;1.67;1.00;;;;;;;;5008895;28;51857;-60
2022/04/08 00:14:45;;;;;;;;;2.00;0.33;;;;;;;;5018280;28;51151;-60
2022/04/08 00:17:11;;;;;;;;;0.00;0.00;;;;;;;;5007198;28;51227;-60
2022/04/08 00:19:36;;;;;;;;;0.00;0.00;;;;;;;;5011765;28;51148;-60
2022/04/08 00:22:02;;;;;;;;;1.00;1.00;;;;;;;;5007732;28;51276;-60
2022/04/08 00:24:27;;;;;;;;;0.33;0.00;;;;;;;;5005735;28;50988;-60
2022/04/08 00:26:52;;;;;;;;;1.33;1.00;;;;;;;;5004462;28;51543;-61
2022/04/08 00:29:18;;;;;;;;;1.00;1.00;;;;;;;;5010559;28;51987;-59
2022/04/08 00:31:43;;;;;;;;;0.33;0.33;;;;;;;;5008835;28;51127;-59
2022/04/08 00:34:08;;;;;;;;;1.00;1.00;;;;;;;;5013202;28;51064;-60
2022/04/08 00:36:34;;;;;;;;;2.00;1.00;;;;;;;;5008292;28;51235;-60
2022/04/08 00:38:59;;;;;;;;;1.00;0.00;;;;;;;;5008650;28;51067;-60
2022/04/08 00:41:24;;;;;;;;;0.00;0.00;;;;;;;;5016489;28;52608;-60
2022/04/08 00:43:49;;;;;;;;;1.00;0.00;;;;;;;;5011290;28;52652;-60
2022/04/08 00:46:15;;;;;;;;;1.00;1.00;;;;;;;;5001162;28;51115;-59
2022/04/08 00:48:40;;;;;;;;;1.00;1.00;;;;;;;;5007728;28;51183;-59
2022/04/08 00:51:06;;;;;;;;;0.00;0.00;;;;;;;;5014858;28;52065;-60
2022/04/08 00:53:31;;;;;;;;;0.00;0.00;;;;;;;;5006634;28;51259;-60
2022/04/08 00:55:57;;;;;;;;;1.00;1.00;;;;;;;;5012298;28;51979;-60
2022/04/08 00:58:22;;;;;;;;;1.67;0.67;;;;;;;;5004115;28;51356;-60
2022/04/08 01:00:48;;;;;;;;;0.33;0.33;;;;;;;;5010225;28;52473;-60
2022/04/08 01:03:13;;;;;;;;;2.33;0.67;;;;;;;;5009154;28;51884;-61
2022/04/08 01:05:38;;;;;;;;;1.00;1.00;;;;;;;;5011919;28;51155;-60
2022/04/08 01:08:04;;;;;;;;;0.00;0.00;;;;;;;;5002904;28;51203;-60
2022/04/08 01:10:29;;;;;;;;;1.33;0.00;;;;;;;;5013043;28;51970;-60
2022/04/08 01:12:54;;;;;;;;;0.33;0.00;;;;;;;;5001461;28;51213;-60
2022/04/08 01:15:20;;;;;;;;;2.00;0.00;;;;;;;;5001814;28;51213;-60
2022/04/08 01:17:45;;;;;;;;;0.00;0.00;;;;;;;;5003747;28;51188;-60
2022/04/08 01:20:11;;;;;;;;;1.00;1.00;;;;;;;;5011967;28;51089;-60
2022/04/08 01:22:36;;;;;;;;;0.33;0.33;;;;;;;;5005595;28;50931;-59
2022/04/08 01:25:05;;;;;;;;;0.00;0.00;;;;;;;;5007706;28;51168;-59
2022/04/08 01:27:31;;;;;;;;;1.00;0.00;;;;;;;;5010756;28;51108;-60
2022/04/08 01:29:56;;;;;;;;;1.00;0.00;;;;;;;;5013285;28;51811;-60
2022/04/08 01:32:22;;;;;;;;;1.67;0.00;;;;;;;;5009568;28;51149;-59
2022/04/08 01:34:49;;;;;;;;;2.67;1.00;;;;;;;;5016771;28;50963;-60
2022/04/08 01:37:14;;;;;;;;;2.00;1.33;;;;;;;;5006686;28;51067;-58
2022/04/08 01:39:40;;;;;;;;;0.00;0.00;;;;;;;;5008196;28;51245;-59
2022/04/08 01:42:05;;;;;;;;;1.33;0.00;;;;;;;;5006636;28;51005;-59
2022/04/08 01:44:31;;;;;;;;;0.00;0.00;;;;;;;;5012625;28;51488;-59
2022/04/08 01:46:56;;;;;;;;;3.33;1.00;;;;;;;;5014213;28;51347;-59
2022/04/08 01:49:21;;;;;;;;;2.00;1.00;;;;;;;;5013167;28;52076;-59
2022/04/08 01:51:46;;;;;;;;;0.00;0.00;;;;;;;;5013320;28;51179;-60
2022/04/08 01:54:12;;;;;;;;;1.00;1.00;;;;;;;;5012626;28;50878;-60
2022/04/08 01:56:37;;;;;;;;;0.00;0.00;;;;;;;;5006172;28;52365;-60
2022/04/08 01:59:02;;;;;;;;;0.00;0.00;;;;;;;;5024799;28;50996;-60
2022/04/08 02:01:27;;;;;;;;;0.33;0.33;;;;;;;;5006831;28;51416;-60
2022/04/08 02:03:52;;;;;;;;;0.67;0.00;;;;;;;;5015493;28;50891;-60
2022/04/08 02:06:18;;;;;;;;;0.00;0.00;;;;;;;;5010855;28;51244;-60
2022/04/08 02:08:43;;;;;;;;;0.00;0.00;;;;;;;;5012755;28;51116;-59
2022/04/08 02:11:08;;;;;;;;;0.67;0.67;;;;;;;;5011173;28;51050;-60
2022/04/08 02:13:33;;;;;;;;;2.00;1.00;;;;;;;;5005668;28;51116;-60
2022/04/08 02:15:58;;;;;;;;;2.00;1.00;;;;;;;;5009064;28;50927;-60
2022/04/08 02:18:24;;;;;;;;;1.67;1.00;;;;;;;;5013143;28;51257;-59
2022/04/08 02:20:51;;;;;;;;;0.00;0.00;;;;;;;;5009832;28;50981;-59
2022/04/08 02:23:16;;;;;;;;;0.33;0.33;;;;;;;;5009012;28;51251;-59
2022/04/08 02:25:42;;;;;;;;;1.00;0.00;;;;;;;;5007902;28;51081;-60
2022/04/08 02:28:08;;;;;;;;;0.00;0.00;;;;;;;;5013337;28;51987;-60
2022/04/08 02:30:33;;;;;;;;;0.00;0.00;;;;;;;;5009405;28;52858;-59
2022/04/08 02:33:01;;;;;;;;;0.33;0.00;;;;;;;;4997957;28;51303;-60
2022/04/08 02:35:26;;;;;;;;;0.67;0.67;;;;;;;;5010741;28;50871;-60
2022/04/08 02:37:52;;;;;;;;;1.00;0.67;;;;;;;;5013447;28;50956;-60
2022/04/08 02:40:17;;;;;;;;;1.33;1.00;;;;;;;;5003185;28;51166;-61
2022/04/08 02:42:42;;;;;;;;;1.00;0.00;;;;;;;;5002008;28;51243;-60
2022/04/08 02:45:07;;;;;;;;;1.67;1.00;;;;;;;;5019807;28;50967;-59
2022/04/08 02:47:39;;;;;;;;;0.00;0.00;;;;;;;;5014446;28;51759;-59
2022/04/08 02:50:04;;;;;;;;;1.33;1.00;;;;;;;;5004288;28;51384;-59
2022/04/08 02:52:29;;;;;;;;;0.25;0.00;;;;;;;;5000969;28;51214;-60
2022/04/08 02:54:54;;;;;;;;;1.00;0.67;;;;;;;;5003859;28;51251;-59
2022/04/08 02:57:20;;;;;;;;;2.00;1.00;;;;;;;;5006727;28;51649;-60
2022/04/08 02:59:45;;;;;;;;;0.67;0.67;;;;;;;;5002885;28;51155;-60
2022/04/08 03:02:10;;;;;;;;;1.67;1.00;;;;;;;;5007480;28;52386;-61
2022/04/08 03:04:35;;;;;;;;;1.67;0.00;;;;;;;;5007745;28;51008;-59
2022/04/08 03:07:01;;;;;;;;;0.25;0.00;;;;;;;;5002866;28;51777;-58
2022/04/08 03:09:27;;;;;;;;;1.00;0.67;;;;;;;;5009989;28;51332;-59
2022/04/08 03:11:52;;;;;;;;;1.33;1.00;;;;;;;;5007050;28;51131;-59
2022/04/08 03:14:17;;;;;;;;;1.00;1.00;;;;;;;;5002097;28;51052;-60
2022/04/08 03:16:43;;;;;;;;;1.00;0.00;;;;;;;;5006518;28;51099;-60
2022/04/08 03:19:08;;;;;;;;;0.67;0.00;;;;;;;;5021968;28;50921;-60
2022/04/08 03:21:33;;;;;;;;;1.33;1.00;;;;;;;;5009451;28;51333;-60
2022/04/08 03:23:59;;;;;;;;;3.00;1.00;;;;;;;;5014370;28;51032;-60
2022/04/08 03:26:24;;;;;;;;;1.00;1.00;;;;;;;;5009035;28;51421;-60
2022/04/08 03:28:49;;;;;;;;;2.00;1.00;;;;;;;;5016885;28;51409;-60
2022/04/08 03:31:14;;;;;;;;;1.00;1.00;;;;;;;;5013235;28;50888;-60
2022/04/08 03:33:40;;;;;;;;;1.00;0.00;;;;;;;;5008048;28;53061;-60
2022/04/08 03:36:05;;;;;;;;;1.00;1.00;;;;;;;;5011212;28;52753;-60
2022/04/08 03:38:31;;;;;;;;;0.00;0.00;;;;;;;;5011361;28;50798;-60
2022/04/08 03:40:56;;;;;;;;;0.25;0.00;;;;;;;;5012099;28;51019;-59
2022/04/08 03:43:21;;;;;;;;;3.00;1.00;;;;;;;;5008102;28;51259;-60
2022/04/08 03:45:47;;;;;;;;;1.00;0.00;;;;;;;;5011187;28;51122;-60
2022/04/08 03:48:12;;;;;;;;;1.00;0.67;;;;;;;;5008431;28;51147;-60
2022/04/08 03:50:37;;;;;;;;;0.00;0.00;;;;;;;;5011178;28;52911;-60
2022/04/08 03:53:02;;;;;;;;;0.67;0.67;;;;;;;;5009909;28;51095;-59
2022/04/08 03:55:27;;;;;;;;;1.00;0.00;;;;;;;;5009625;28;51050;-59
2022/04/08 03:57:53;;;;;;;;;0.00;0.00;;;;;;;;5003044;28;55672;-59
2022/04/08 04:00:18;;;;;;;;;1.00;0.00;;;;;;;;5012364;28;51715;-61
2022/04/08 04:02:43;;;;;;;;;1.00;1.00;;;;;;;;5018431;28;50977;-61
2022/04/08 04:05:10;;;;;;;;;1.00;1.00;;;;;;;;5010028;28;51160;-61
2022/04/08 04:07:36;;;;;;;;;2.00;1.00;;;;;;;;5004936;28;51213;-59
2022/04/08 04:10:01;;;;;;;;;0.00;0.00;;;;;;;;5012965;28;52903;-61
2022/04/08 04:12:29;;;;;;;;;1.00;1.00;;;;;;;;5010715;28;51093;-59
2022/04/08 04:14:55;;;;;;;;;1.00;0.00;;;;;;;;4999605;28;51079;-59
2022/04/08 04:17:21;;;;;;;;;1.00;0.00;;;;;;;;5012580;28;51096;-59
2022/04/08 04:19:46;;;;;;;;;0.00;0.00;;;;;;;;5015111;28;51671;-61
2022/04/08 04:22:11;;;;;;;;;2.33;2.00;;;;;;;;5013489;28;51222;-60
2022/04/08 04:24:36;;;;;;;;;0.00;0.00;;;;;;;;5005526;28;51973;-60
2022/04/08 04:27:02;;;;;;;;;4.33;1.00;;;;;;;;5005265;28;51285;-59
2022/04/08 04:29:27;;;;;;;;;2.00;1.00;;;;;;;;5008938;28;51018;-59
2022/04/08 04:31:55;;;;;;;;;0.00;0.00;;;;;;;;5005828;28;51261;-59
2022/04/08 04:34:20;;;;;;;;;1.00;1.00;;;;;;;;5012784;28;51106;-59
2022/04/08 04:36:45;;;;;;;;;1.33;1.00;;;;;;;;5007417;28;53625;-60
2022/04/08 04:39:11;;;;;;;;;1.00;1.00;;;;;;;;5012284;28;51119;-60
2022/04/08 04:41:36;;;;;;;;;0.00;0.00;;;;;;;;5011343;28;51163;-59
2022/04/08 04:44:02;;;;;;;;;0.00;0.00;;;;;;;;5012351;28;51079;-62
2022/04/08 04:46:27;;;;;;;;;0.75;0.75;;;;;;;;5009316;28;51067;-60
2022/04/08 04:48:52;;;;;;;;;1.67;1.00;;;;;;;;5013137;28;51149;-60
2022/04/08 04:51:17;;;;;;;;;0.00;0.00;;;;;;;;5006120;28;51321;-61
2022/04/08 04:53:43;;;;;;;;;1.00;0.00;;;;;;;;5013627;28;51705;-60
2022/04/08 04:56:08;;;;;;;;;3.00;1.00;;;;;;;;5010560;28;51087;-60
2022/04/08 04:58:33;;;;;;;;;1.33;1.00;;;;;;;;5009059;28;51268;-60
2022/04/08 05:00:58;;;;;;;;;1.00;0.33;;;;;;;;5009409;28;50921;-60
2022/04/08 05:03:24;;;;;;;;;0.00;0.00;;;;;;;;5015356;28;52016;-62
2022/04/08 05:05:49;;;;;;;;;1.00;1.00;;;;;;;;5007658;28;53730;-61
2022/04/08 05:08:14;;;;;;;;;0.33;0.00;;;;;;;;5006808;28;52753;-60
2022/04/08 05:10:40;;;;;;;;;2.00;1.00;;;;;;;;5005274;28;52537;-60
2022/04/08 05:13:05;;;;;;;;;1.67;1.33;;;;;;;;5002871;28;51171;-60
2022/04/08 05:15:32;;;;;;;;;1.00;0.67;;;;;;;;5010051;28;51104;-60
2022/04/08 05:17:58;;;;;;;;;2.00;2.00;;;;;;;;5003316;28;51135;-60
2022/04/08 05:20:23;;;;;;;;;2.00;1.33;;;;;;;;5007927;28;51529;-59
2022/04/08 05:22:48;;;;;;;;;1.00;1.00;;;;;;;;4993850;28;52237;-61
2022/04/08 05:25:14;;;;;;;;;2.33;2.00;;;;;;;;4999551;28;50973;-61
2022/04/08 05:27:42;;;;;;;;;1.00;1.00;;;;;;;;5006643;28;51044;-61
2022/04/08 05:30:09;;;;;;;;;2.67;1.33;;;;;;;;5005969;28;50989;-61
2022/04/08 05:32:34;;;;;;;;;3.00;3.00;;;;;;;;5008984;28;51110;-59
2022/04/08 05:34:59;;;;;;;;;1.00;0.00;;;;;;;;5008353;28;51001;-60
2022/04/08 05:37:24;;;;;;;;;2.00;1.67;;;;;;;;5003323;28;51188;-60
2022/04/08 05:39:52;;;;;;;;;2.00;1.00;;;;;;;;5008280;28;51301;-60
2022/04/08 05:42:17;;;;;;;;;1.33;1.33;;;;;;;;5005879;28;51982;-61
2022/04/08 05:44:42;;;;;;;;;1.67;0.67;;;;;;;;5008967;28;51099;-62
2022/04/08 05:47:07;;;;;;;;;2.00;2.00;;;;;;;;5007070;28;51187;-60
2022/04/08 05:49:32;;;;;;;;;1.00;1.00;;;;;;;;4989487;28;51149;-60
2022/04/08 05:51:58;;;;;;;;;2.00;1.00;;;;;;;;4994656;28;51755;-60
2022/04/08 05:54:23;;;;;;;;;1.00;1.00;;;;;;;;5003651;28;51112;-61
2022/04/08 05:56:48;;;;;;;;;2.67;2.00;;;;;;;;4992702;28;53549;-60
2022/04/08 05:59:13;;;;;;;;;1.00;1.00;;;;;;;;4994645;28;50985;-60
2022/04/08 06:01:38;;;;;;;;;1.00;1.00;;;;;;;;4998566;28;51101;-59
2022/04/08 06:04:04;;;;;;;;;1.00;1.00;;;;;;;;4992222;28;52172;-60
2022/04/08 06:06:29;;;;;;;;;2.75;2.50;;;;;;;;4994962;28;51097;-60
2022/04/08 06:08:54;;;;;;;;;2.00;2.00;;;;;;;;4990935;28;51147;-60
2022/04/08 06:11:19;;;;;;;;;2.00;1.00;;;;;;;;4991603;28;51253;-61
2022/04/08 06:13:45;;;;;;;;;1.00;1.00;;;;;;;;4995503;28;51280;-58
2022/04/08 06:16:10;;;;;;;;;2.00;1.00;;;;;;;;4991737;28;51307;-61
2022/04/08 06:18:35;;;;;;;;;2.33;1.00;;;;;;;;5000184;28;51304;-60
2022/04/08 06:21:01;;;;;;;;;2.00;1.00;;;;;;;;4990061;28;53396;-60
2022/04/08 06:23:27;;;;;;;;;1.00;1.00;;;;;;;;5005969;28;51349;-61
2022/04/08 06:25:52;;;;;;;;;2.00;1.00;;;;;;;;4990845;28;51338;-60
2022/04/08 06:28:17;;;;;;;;;1.33;1.33;;;;;;;;4998541;28;51387;-60
2022/04/08 06:30:43;;;;;;;;;2.75;2.00;;;;;;;;4995579;28;51889;-60
2022/04/08 06:33:09;;;;;;;;;2.00;2.00;;;;;;;;5006300;28;51234;-60
2022/04/08 06:35:35;;;;;;;;;2.67;2.00;;;;;;;;4987468;28;51773;-60
2022/04/08 06:38:00;;;;;;;;;2.00;2.00;;;;;;;;4999358;28;51444;-61
2022/04/08 06:40:25;;;;;;;;;2.33;2.00;;;;;;;;5010920;28;51210;-63
2022/04/08 06:42:55;;;;;;;;;1.00;1.00;;;;;;;;4997725;28;51046;-62
2022/04/08 06:45:21;;;;;;;;;2.00;1.67;;;;;;;;4992063;28;50973;-61
2022/04/08 06:47:47;;;;;;;;;2.25;2.25;;;;;;;;5006231;28;51100;-61
2022/04/08 06:50:12;;;;;;;;;1.67;1.00;;;;;;;;5009067;28;53868;-60
2022/04/08 06:52:37;;;;;;;;;3.00;3.00;;;;;;;;5000847;28;50999;-62
2022/04/08 06:55:03;;;;;;;;;2.00;2.00;;;;;;;;5023110;28;51193;-62
2022/04/08 06:57:28;;;;;;;;;4.33;3.00;;;;;;;;5023316;28;51417;-61
2022/04/08 06:59:53;;;;;;;;;1.00;1.00;;;;;;;;5013472;28;53885;-63
2022/04/08 07:02:18;;;;;;;;;1.00;1.00;;;;;;;;5009195;28;51436;-62
2022/04/08 07:04:44;;;;;;;;;2.00;2.00;;;;;;;;5013882;28;50961;-62
2022/04/08 07:07:09;;;;;;;;;1.00;1.00;;;;;;;;5012938;28;51116;-62
2022/04/08 07:09:34;;;;;;;;;7.25;7.00;;;;;;;;5014637;28;52080;-64
2022/04/08 07:12:00;;;;;;;;;2.33;2.00;;;;;;;;5011671;28;51225;-63
2022/04/08 07:14:25;;;;;;;;;2.00;2.00;;;;;;;;5014806;28;51175;-63
2022/04/08 07:16:51;;;;;;;;;4.33;3.00;;;;;;;;5012054;28;51409;-61
2022/04/08 07:19:16;;;;;;;;;3.00;2.00;;;;;;;;5013674;28;51886;-62
2022/04/08 07:21:41;;;;;;;;;0.00;0.00;;;;;;;;5014990;28;50981;-62
2022/04/08 07:24:07;;;;;;;;;3.33;2.00;;;;;;;;5013417;28;51651;-61
2022/04/08 07:26:32;;;;;;;;;3.00;2.00;;;;;;;;5015203;28;51381;-61
2022/04/08 07:28:57;;;;;;;;;4.00;3.00;;;;;;;;5014647;28;51011;-61
2022/04/08 07:31:23;;;;;;;;;2.75;2.75;;;;;;;;5014851;28;50974;-60
2022/04/08 07:33:48;;;;;;;;;3.00;1.00;;;;;;;;5014781;28;51575;-61
2022/04/08 07:36:13;;;;;;;;;1.67;1.67;;;;;;;;5014069;28;50983;-60
2022/04/08 07:38:39;;;;;;;;;2.00;2.00;;;;;;;;5014226;28;52118;-60
2022/04/08 07:41:04;;;;;;;;;1.75;1.50;;;;;;;;5014435;28;51100;-61
2022/04/08 07:43:29;;;;;;;;;0.33;0.33;;;;;;;;5013741;28;51088;-61
2022/04/08 07:45:54;;;;;;;;;0.67;0.67;;;;;;;;5014995;28;51396;-60
2022/04/08 07:48:19;;;;;;;;;1.00;1.00;;;;;;;;5012586;28;51098;-64
2022/04/08 07:50:45;;;;;;;;;2.00;1.00;;;;;;;;5013622;28;51062;-61
2022/04/08 07:53:10;;;;;;;;;1.75;1.75;;;;;;;;5014601;28;50965;-61
2022/04/08 07:55:35;;;;;;;;;1.00;1.00;;;;;;;;5014716;28;51072;-61
2022/04/08 07:58:00;;;;;;;;;1.50;1.50;;;;;;;;5012908;28;51830;-61
2022/04/08 08:00:27;;;;;;;;;3.00;1.00;;;;;;;;5012949;28;51156;-62
2022/04/08 08:02:52;;;;;;;;;2.00;2.00;;;;;;;;5014148;28;51110;-61
2022/04/08 08:05:20;;;;;;;;;1.75;1.25;;;;;;;;5014369;28;51270;-60
2022/04/08 08:07:51;;;;;;;;;1.00;1.00;;;;;;;;5013181;28;53727;-61
2022/04/08 08:10:18;;;;;;;;;1.00;1.00;;;;;;;;5013894;28;51020;-62
2022/04/08 08:12:43;;;;;;;;;0.00;0.00;;;;;;;;5014026;28;50856;-61
2022/04/08 08:15:09;;;;;;;;;0.00;0.00;;;;;;;;5013078;28;50955;-62
2022/04/08 08:17:34;;;;;;;;;2.00;0.50;;;;;;;;5014162;28;50989;-62
2022/04/08 08:19:59;;;;;;;;;0.00;0.00;;;;;;;;5012804;28;51043;-61
2022/04/08 08:22:24;;;;;;;;;1.00;0.00;;;;;;;;5013347;28;50854;-61
2022/04/08 08:24:49;;;;;;;;;1.00;0.00;;;;;;;;5014299;28;51955;-61
2022/04/08 08:27:15;;;;;;;;;1.00;0.00;;;;;;;;5014326;28;51993;-60
2022/04/08 08:29:40;;;;;;;;;0.75;0.75;;;;;;;;5014628;28;50964;-61
2022/04/08 08:32:05;;;;;;;;;1.00;1.00;;;;;;;;5014035;28;50893;-62
2022/04/08 08:34:31;;;;;;;;;0.25;0.25;;;;;;;;5014369;28;51300;-61
2022/04/08 08:36:59;;;;;;;;;1.00;1.00;;;;;;;;5013684;28;51173;-61
2022/04/08 08:39:25;;;;;;;;;1.00;1.00;;;;;;;;5012424;28;51021;-61
2022/04/08 08:41:50;;;;;;;;;1.00;1.00;;;;;;;;5013803;28;51086;-62
2022/04/08 08:44:16;;;;;;;;;0.00;0.00;;;;;;;;5013935;28;51389;-60
2022/04/08 08:46:42;;;;;;;;;1.00;1.00;;;;;;;;5013826;28;52014;-62
2022/04/08 08:49:10;;;;;;;;;1.50;1.50;;;;;;;;5012434;28;50904;-61
2022/04/08 08:51:38;;;;;;;;;1.00;1.00;;;;;;;;5013049;28;51011;-61
2022/04/08 08:54:03;;;;;;;;;0.00;0.00;;;;;;;;5013735;28;51194;-61
2022/04/08 08:56:29;;;;;;;;;1.00;1.00;;;;;;;;5012370;28;51824;-61
2022/04/08 08:58:54;;;;;;;;;0.33;0.00;;;;;;;;5013728;28;51052;-61
2022/04/08 09:01:19;;;;;;;;;2.00;1.00;;;;;;;;5013682;28;51725;-61
2022/04/08 09:03:44;;;;;;;;;2.25;1.50;;;;;;;;5009144;28;51378;-62
2022/04/08 09:06:10;;;;;;;;;2.50;2.00;;;;;;;;5013119;28;51238;-61
2022/04/08 09:08:35;;;;;;;;;2.00;2.00;;;;;;;;5012558;28;50969;-61
2022/04/08 09:11:01;;;;;;;;;3.75;3.00;;;;;;;;5011871;28;51104;-61
2022/04/08 09:13:28;;;;;;;;;0.00;0.00;;;;;;;;5011289;28;52610;-63
2022/04/08 09:15:53;;;;;;;;;0.00;0.00;;;;;;;;5011951;28;53700;-63
2022/04/08 09:18:19;;;;;;;;;2.00;2.00;;;;;;;;5012808;28;50986;-60
2022/04/08 09:20:46;;;;;;;;;1.00;1.00;;;;;;;;5013570;28;51471;-62
2022/04/08 09:23:12;;;;;;;;;1.00;1.00;;;;;;;;5011997;28;51349;-64
2022/04/08 09:25:39;;;;;;;;;0.75;0.75;;;;;;;;5012902;28;51131;-63
2022/04/08 09:28:08;;;;;;;;;1.50;1.00;;;;;;;;5013149;28;50941;-62
2022/04/08 09:30:33;;;;;;;;;1.00;1.00;;;;;;;;5012729;28;51099;-60
2022/04/08 09:32:59;;;;;;;;;5.25;1.75;;;;;;;;5010087;28;51048;-61
2022/04/08 09:35:25;;;;;;;;;3.75;3.75;;;;;;;;5012555;28;51969;-61
2022/04/08 09:38:01;;;;;;;;;1.00;1.00;;;;;;;;5011072;28;51151;-61
2022/04/08 09:40:33;;;;;;;;;2.00;2.00;;;;;;;;5010936;28;51024;-63
2022/04/08 09:42:58;;;;;;;;;1.00;1.00;;;;;;;;5012820;28;51182;-62
2022/04/08 09:45:30;;;;;;;;;2.00;2.00;;;;;;;;5012630;28;50881;-62
2022/04/08 09:47:57;;;;;;;;;1.00;1.00;;;;;;;;5013468;28;51173;-61
2022/04/08 09:50:23;;;;;;;;;1.75;1.25;;;;;;;;5009663;28;51185;-62
2022/04/08 09:52:48;;;;;;;;;1.00;1.00;;;;;;;;5012995;28;50963;-63
2022/04/08 09:55:16;;;;;;;;;2.33;1.00;;;;;;;;5012290;28;52057;-64
2022/04/08 09:57:41;;;;;;;;;0.25;0.25;;;;;;;;5011624;28;51574;-61
2022/04/08 10:00:08;;;;;;;;;1.25;1.00;;;;;;;;5011094;28;51596;-62
2022/04/08 10:02:35;;;;;;;;;0.75;0.75;;;;;;;;5011225;28;51059;-61
2022/04/08 10:05:01;;;;;;;;;1.00;1.00;;;;;;;;5011668;28;52156;-61
2022/04/08 10:07:27;;;;;;;;;1.00;1.00;;;;;;;;5012202;28;51431;-62
2022/04/08 10:10:11;;;;;;;;;3.00;2.50;;;;;;;;5010868;28;51295;-63
2022/04/08 10:12:45;;;;;;;;;4.75;3.25;;;;;;;;5012759;28;51226;-63
2022/04/08 10:15:34;;;;;;;;;2.00;2.00;;;;;;;;5009959;28;51101;-61
2022/04/08 10:18:03;;;;;;;;;1.50;1.50;;;;;;;;5000877;28;51207;-63
2022/04/08 10:20:29;;;;;;;;;1.50;1.25;;;;;;;;5012188;28;51083;-62
2022/04/08 10:23:04;;;;;;;;;4.25;3.00;;;;;;;;5011238;28;51262;-62
2022/04/08 10:25:35;;;;;;;;;6.75;5.50;;;;;;;;5011933;28;51608;-62
2022/04/08 10:28:00;;;;;;;;;1.75;1.75;;;;;;;;5012262;28;51005;-62
2022/04/08 10:30:25;;;;;;;;;2.00;2.00;;;;;;;;5012570;28;51277;-63
2022/04/08 10:33:00;;;;;;;;;3.00;3.00;;;;;;;;5015024;28;51094;-63
2022/04/08 10:35:26;;;;;;;;;6.00;5.50;;;;;;;;5015499;28;52205;-63
2022/04/08 10:37:58;;;;;;;;;4.25;4.25;;;;;;;;5015794;28;51083;-63
2022/04/08 10:40:34;;;;;;;;;3.00;3.00;;;;;;;;5015330;28;50866;-65
2022/04/08 10:43:00;;;;;;;;;2.25;2.00;;;;;;;;5015632;28;51203;-64
2022/04/08 10:45:26;;;;;;;;;2.25;2.00;;;;;;;;5015534;28;51016;-65
2022/04/08 10:47:51;;;;;;;;;2.00;2.00;;;;;;;;5015409;28;50956;-64
2022/04/08 10:50:24;;;;;;;;;1.50;1.25;;;;;;;;5016051;28;50874;-65
2022/04/08 10:52:49;;;;;;;;;3.50;2.00;;;;;;;;5016038;28;50906;-65
2022/04/08 10:55:15;;;;;;;;;3.75;3.75;;;;;;;;5014898;28;50992;-65
2022/04/08 10:57:42;;;;;;;;;7.00;4.50;;;;;;;;5015450;28;50995;-65
2022/04/08 11:00:10;;;;;;;;;3.00;2.00;;;;;;;;5015533;28;50969;-64
2022/04/08 11:02:36;;;;;;;;;5.50;5.50;;;;;;;;5014435;28;51124;-65
2022/04/08 11:05:05;;;;;;;;;4.00;4.00;;;;;;;;5014273;28;51058;-66
2022/04/08 11:07:31;;;;;;;;;4.25;3.00;;;;;;;;5015026;28;50959;-65
2022/04/08 11:09:57;;;;;;;;;7.00;6.00;;;;;;;;5014496;28;51170;-67
2022/04/08 11:12:22;;;;;;;;;5.00;5.00;;;;;;;;5015796;28;51091;-64
2022/04/08 11:14:54;;;;;;;;;3.75;3.75;;;;;;;;4997709;28;51228;-64
2022/04/08 11:17:20;;;;;;;;;3.50;3.00;;;;;;;;5015841;28;50968;-65
2022/04/08 11:19:48;;;;;;;;;7.25;7.00;;;;;;;;5014903;28;51016;-65
2022/04/08 11:22:14;;;;;;;;;4.00;4.00;;;;;;;;5015691;28;51026;-65
2022/04/08 11:24:39;;;;;;;;;3.50;3.50;;;;;;;;5014351;28;51061;-66
2022/04/08 11:27:04;;;;;;;;;3.50;3.00;;;;;;;;5015239;28;50993;-66
2022/04/08 11:29:30;;;;;;;;;9.50;9.50;;;;;;;;5014902;28;51191;-65
2022/04/08 11:32:08;;;;;;;;;5.50;5.00;;;;;;;;5015575;28;51122;-64
2022/04/08 11:34:34;;;;;;;;;6.50;6.50;;;;;;;;5013154;28;51856;-65
2022/04/08 11:36:59;;;;;;;;;6.75;6.00;;;;;;;;5012730;28;50995;-65
2022/04/08 11:39:26;;;;;;;;;8.00;7.00;;;;;;;;5014664;28;51173;-65
2022/04/08 11:41:56;;;;;;;;;4.00;4.00;;;;;;;;5013178;28;51225;-64
2022/04/08 11:44:22;;;;;;;;;6.00;5.50;;;;;;;;5014145;28;51099;-64
2022/04/08 11:46:47;;;;;;;;;6.00;4.00;;;;;;;;5014663;28;50979;-65
2022/04/08 11:49:13;;;;;;;;;6.25;4.50;;;;;;;;5014968;28;51123;-65
2022/04/08 11:51:38;;;;;;;;;7.75;7.00;;;;;;;;5014799;28;50934;-65
2022/04/08 11:54:04;;;;;;;;;4.50;4.00;;;;;;;;5014317;28;51684;-65
2022/04/08 11:56:30;;;;;;;;;6.00;6.00;;;;;;;;5012996;28;50910;-65
2022/04/08 11:58:55;;;;;;;;;6.50;6.50;;;;;;;;5014036;28;51067;-64
2022/04/08 12:01:21;;;;;;;;;8.75;7.75;;;;;;;;5014514;28;51305;-64
2022/04/08 12:03:48;;;;;;;;;7.50;7.25;;;;;;;;5012107;28;52591;-65
2022/04/08 12:06:13;;;;;;;;;8.00;7.50;;;;;;;;5013597;28;51003;-65
2022/04/08 12:08:38;;;;;;;;;6.25;6.00;;;;;;;;5012877;28;51111;-65
2022/04/08 12:11:07;;;;;;;;;6.75;6.75;;;;;;;;5014160;28;51328;-65
2022/04/08 12:13:34;;;;;;;;;12.25;11.75;;;;;;;;5014353;28;50986;-65
2022/04/08 12:15:59;;;;;;;;;6.50;6.50;;;;;;;;5014187;28;51144;-65
2022/04/08 12:18:25;;;;;;;;;9.00;9.00;;;;;;;;5014545;28;51109;-66
2022/04/08 12:20:53;;;;;;;;;6.75;6.75;;;;;;;;5012531;28;51208;-65
2022/04/08 12:23:19;;;;;;;;;7.00;6.00;;;;;;;;5013114;28;51895;-65
2022/04/08 12:25:45;;;;;;;;;7.00;6.50;;;;;;;;5012746;28;51223;-64
2022/04/08 12:28:11;;;;;;;;;7.50;7.00;;;;;;;;5014219;28;51222;-65
2022/04/08 12:30:37;;;;;;;;;11.25;9.00;;;;;;;;5014171;28;51365;-64
2022/04/08 12:33:02;;;;;;;;;7.00;7.00;;;;;;;;5013473;28;50978;-65
2022/04/08 12:35:27;;;;;;;;;4.00;4.00;;;;;;;;5013624;28;50911;-65
2022/04/08 12:37:53;;;;;;;;;10.25;9.00;;;;;;;;5014194;28;50933;-65
2022/04/08 12:40:18;;;;;;;;;10.00;9.75;;;;;;;;5013956;28;51068;-65
2022/04/08 12:42:43;;;;;;;;;9.00;9.00;;;;;;;;5013281;28;51134;-65
2022/04/08 12:45:09;;;;;;;;;7.50;7.00;;;;;;;;5013727;28;50952;-65
2022/04/08 12:47:35;;;;;;;;;11.25;10.75;;;;;;;;5014105;28;51214;-64
2022/04/08 12:50:00;;;;;;;;;9.75;9.75;;;;;;;;5012565;28;51180;-65
2022/04/08 12:52:25;;;;;;;;;12.00;12.00;;;;;;;;5012766;28;50866;-66
2022/04/08 12:54:51;;;;;;;;;11.75;11.25;;;;;;;;5013109;28;50913;-65
2022/04/08 12:57:18;;;;;;;;;8.75;8.75;;;;;;;;5013664;28;51169;-65
2022/04/08 12:59:44;;;;;;;;;9.50;9.50;;;;;;;;5013832;28;51386;-65
2022/04/08 13:02:09;;;;;;;;;9.00;8.50;;;;;;;;5011154;28;54109;-64
2022/04/08 13:04:35;;;;;;;;;6.00;6.00;;;;;;;;5013200;28;50962;-66
2022/04/08 13:07:02;;;;;;;;;8.75;8.75;;;;;;;;5013506;28;51124;-64
2022/04/08 13:09:28;;;;;;;;;7.75;7.00;;;;;;;;5012889;28;51375;-64
2022/04/08 13:11:53;;;;;;;;;6.25;6.00;;;;;;;;5011733;28;51276;-65
2022/04/08 13:14:18;;;;;;;;;2.75;2.75;;;;;;;;5013063;28;51002;-64
2022/04/08 13:16:43;;;;;;;;;3.75;3.25;;;;;;;;5013577;28;50857;-65
2022/04/08 13:19:09;;;;;;;;;5.00;5.00;;;;;;;;5012108;28;51262;-65
2022/04/08 13:21:34;;;;;;;;;4.50;4.50;;;;;;;;5011645;28;52701;-65
2022/04/08 13:23:59;;;;;;;;;5.50;5.50;;;;;;;;5013154;28;50941;-64
2022/04/08 13:26:26;;;;;;;;;5.50;4.00;;;;;;;;5013181;28;50879;-65
2022/04/08 13:28:52;;;;;;;;;3.00;3.00;;;;;;;;5009876;28;51334;-65
2022/04/08 13:31:17;;;;;;;;;3.75;3.75;;;;;;;;5027991;28;51185;-65
2022/04/08 13:33:42;;;;;;;;;3.00;3.00;;;;;;;;5011535;28;51046;-64
2022/04/08 13:36:07;;;;;;;;;3.00;2.00;;;;;;;;5011502;28;51297;-65
2022/04/08 13:38:33;;;;;;;;;3.50;2.25;;;;;;;;5013249;28;51109;-64
2022/04/08 13:40:58;;;;;;;;;2.00;1.00;;;;;;;;5009480;28;53547;-64
2022/04/08 13:43:25;;;;;;;;;2.75;2.25;;;;;;;;5012654;28;51078;-65
2022/04/08 13:45:50;;;;;;;;;2.00;2.00;;;;;;;;5012662;28;51134;-65
2022/04/08 13:48:15;;;;;;;;;2.00;2.00;;;;;;;;5013177;28;50990;-65
2022/04/08 13:50:40;;;;;;;;;2.75;2.75;;;;;;;;5012477;28;53032;-65
2022/04/08 13:53:06;;;;;;;;;2.00;2.00;;;;;;;;5013092;28;51204;-65
2022/04/08 13:55:31;;;;;;;;;1.25;1.25;;;;;;;;5012398;28;51188;-64
2022/04/08 13:57:56;;;;;;;;;2.00;2.00;;;;;;;;5013038;28;51130;-64
2022/04/08 14:00:21;;;;;;;;;1.50;1.50;;;;;;;;5012708;28;51172;-64
2022/04/08 14:02:47;;;;;;;;;6.75;6.00;;;;;;;;5012548;28;50829;-65
2022/04/08 14:05:12;;;;;;;;;2.75;2.00;;;;;;;;5011490;28;50855;-65
2022/04/08 14:07:37;;;;;;;;;4.00;4.00;;;;;;;;5011681;28;50862;-65
2022/04/08 14:10:03;;;;;;;;;1.25;1.00;;;;;;;;5012026;28;52016;-65
2022/04/08 14:12:28;;;;;;;;;3.00;2.50;;;;;;;;5012599;28;51689;-66
2022/04/08 14:14:54;;;;;;;;;2.00;2.00;;;;;;;;5013034;28;51025;-65
2022/04/08 14:17:19;;;;;;;;;3.00;2.75;;;;;;;;5012974;28;51175;-65
2022/04/08 14:19:44;;;;;;;;;3.00;2.50;;;;;;;;5012390;28;52125;-64
2022/04/08 14:22:10;;;;;;;;;3.00;3.00;;;;;;;;5012315;28;50942;-65
2022/04/08 14:24:35;;;;;;;;;4.25;4.25;;;;;;;;5012162;28;50973;-65
2022/04/08 14:27:00;;;;;;;;;6.00;6.00;;;;;;;;5012296;28;51011;-65
2022/04/08 14:29:25;;;;;;;;;5.00;4.00;;;;;;;;5012017;28;50958;-65
2022/04/08 14:31:51;;;;;;;;;3.00;3.00;;;;;;;;5012169;28;50842;-64
2022/04/08 14:34:16;;;;;;;;;3.00;3.00;;;;;;;;5009943;28;51246;-65